Time;durP1;ratioP1;P1;durP2;ratioP2;P2;SDS_P1;SDS_P2;PMS_P1;PMS_P2;Temp;Humidity;BMP_temperature;BMP_pressure;BME280_temperature;BME280_humidity;BME280_pressure;Samples;Min_cycle;Max_cycle;Signal;HPM_P1;HPM_P2
2022/06/25 00:02:22;;;;;;;12.45;11.15;;;;;;;17.84;100.00;100736.97;5025358;28;20128;-28
2022/06/25 00:07:35;;;;;;;12.32;11.07;;;;;;;17.82;100.00;100742.13;5020774;28;20052;-29
2022/06/25 00:10:04;;;;;;;14.30;12.00;;;;;;;17.84;100.00;100753.91;5030697;28;20057;-30
2022/06/25 00:12:36;;;;;;;12.98;11.45;;;;;;;17.86;100.00;100750.72;5025247;28;20054;-37
2022/06/25 00:15:05;;;;;;;;;;;;;;;17.82;100.00;100746.94;5014830;28;20108;-32
2022/06/25 00:17:34;;;;;;;14.57;12.45;;;;;;;17.79;100.00;100756.09;5019198;28;20357;-33
2022/06/25 00:20:04;;;;;;;16.48;14.77;;;;;;;17.81;100.00;100754.59;5019815;28;20049;-29
2022/06/25 00:22:32;;;;;;;15.45;13.85;;;;;;;17.84;100.00;100761.53;5019530;28;20112;-29
2022/06/25 00:25:00;;;;;;;16.13;14.43;;;;;;;17.84;100.00;100764.34;4995996;28;20085;-29
2022/06/25 00:27:28;;;;;;;16.40;14.63;;;;;;;17.85;100.00;100757.53;5018246;28;20050;-31
2022/06/25 00:29:56;;;;;;;17.23;15.13;;;;;;;17.85;100.00;100754.72;5029969;28;20076;-29
2022/06/25 00:32:24;;;;;;;17.23;13.90;;;;;;;17.86;100.00;100759.19;5019282;28;20521;-29
2022/06/25 00:34:54;;;;;;;16.08;14.38;;;;;;;17.86;100.00;100760.00;5027122;28;20073;-34
2022/06/25 00:37:22;;;;;;;18.00;15.75;;;;;;;17.87;100.00;100747.56;5022601;28;20388;-29
2022/06/25 00:39:50;;;;;;;17.30;15.32;;;;;;;17.87;100.00;100752.38;5017470;28;20125;-32
2022/06/25 00:42:19;;;;;;;15.75;14.05;;;;;;;17.87;100.00;100758.03;5020193;28;20129;-37
2022/06/25 00:44:47;;;;;;;16.33;14.40;;;;;;;17.86;100.00;100759.19;5024045;28;20049;-36
2022/06/25 00:47:15;;;;;;;12.90;11.55;;;;;;;17.86;100.00;100756.38;5021896;28;20042;-33
2022/06/25 00:49:44;;;;;;;14.80;12.50;;;;;;;17.85;100.00;100754.72;5021938;28;20077;-30
2022/06/25 00:52:16;;;;;;;16.20;14.45;;;;;;;17.85;100.00;100763.19;5019117;28;20046;-31
2022/06/25 00:54:49;;;;;;;17.75;15.88;;;;;;;17.82;100.00;100767.53;5021843;28;20052;-28
2022/06/25 00:57:20;;;;;;;15.70;14.05;;;;;;;17.82;100.00;100766.72;5024749;28;20096;-28
2022/06/25 00:59:51;;;;;;;17.55;15.18;;;;;;;17.80;100.00;100767.06;5022531;28;20108;-30
2022/06/25 01:02:20;;;;;;;16.63;14.40;;;;;;;17.78;100.00;100760.13;5017952;28;20128;-28
2022/06/25 01:04:48;;;;;;;18.75;16.70;;;;;;;17.77;100.00;100770.59;5020748;28;20103;-28
2022/06/25 01:07:19;;;;;;;18.23;15.85;;;;;;;17.76;100.00;100780.25;5025921;28;20066;-29
2022/06/25 01:09:48;;;;;;;17.25;14.82;;;;;;;17.75;100.00;100772.94;5019822;28;20074;-28
2022/06/25 01:12:16;;;;;;;17.25;15.35;;;;;;;17.74;100.00;100776.13;5015864;28;20084;-32
2022/06/25 01:14:44;;;;;;;15.82;14.13;;;;;;;17.72;100.00;100776.47;5018104;28;20469;-32
2022/06/25 01:17:13;;;;;;;17.38;15.48;;;;;;;17.71;100.00;100780.47;5028324;28;20166;-26
2022/06/25 01:19:41;;;;;;;16.77;14.45;;;;;;;17.72;100.00;100773.66;5014786;28;20128;-29
2022/06/25 01:22:10;;;;;;;16.23;14.48;;;;;;;17.71;100.00;100774.81;5011293;28;20045;-29
2022/06/25 01:24:38;;;;;;;14.23;12.73;;;;;;;17.70;100.00;100769.53;5018461;28;20050;-30
2022/06/25 01:27:13;;;;;;;19.20;16.65;;;;;;;17.72;100.00;100772.81;5029677;28;20092;-29
2022/06/25 01:29:41;;;;;;;16.55;14.70;;;;;;;17.71;100.00;100772.00;5024521;28;20136;-32
2022/06/25 01:32:10;;;;;;;16.30;14.55;;;;;;;17.72;100.00;100781.28;5013728;28;20108;-28
2022/06/25 01:34:39;;;;;;;18.25;16.35;;;;;;;17.71;100.00;100788.94;5013405;28;20528;-33
2022/06/25 01:37:06;;;;;;;18.23;16.33;;;;;;;17.72;100.00;100781.28;5027972;28;20049;-35
2022/06/25 01:39:36;;;;;;;18.08;15.80;;;;;;;17.75;100.00;100791.88;5019464;28;20149;-35
2022/06/25 01:42:04;;;;;;;18.30;14.57;;;;;;;17.75;100.00;100791.88;5026892;28;20049;-31
2022/06/25 01:44:36;;;;;;;18.38;15.82;;;;;;;17.76;100.00;100802.00;5021295;28;20153;-28
2022/06/25 01:47:04;;;;;;;17.20;14.95;;;;;;;17.74;100.00;100793.06;5026060;28;20057;-31
2022/06/25 01:49:32;;;;;;;17.10;15.15;;;;;;;17.74;100.00;100799.53;5022082;28;20410;-36
2022/06/25 01:52:00;;;;;;;14.23;12.60;;;;;;;17.74;100.00;100807.16;5019607;28;20060;-34
2022/06/25 01:54:29;;;;;;;15.60;13.82;;;;;;;17.73;100.00;100808.34;5019564;28;20061;-29
2022/06/25 01:56:59;;;;;;;14.10;12.68;;;;;;;17.72;100.00;100806.69;5019961;28;20057;-29
2022/06/25 01:59:26;;;;;;;15.93;14.32;;;;;;;17.70;100.00;100809.03;5022014;28;20046;-32
2022/06/25 02:01:54;;;;;;;17.35;15.45;;;;;;;17.69;100.00;100808.22;5037960;28;20046;-29
2022/06/25 02:04:23;;;;;;;15.00;12.85;;;;;;;17.67;100.00;100804.06;5015236;28;20069;-33
2022/06/25 02:06:51;;;;;;;11.82;10.63;;;;;;;17.66;100.00;100810.91;5020360;28;20538;-32
2022/06/25 02:09:19;;;;;;;13.68;12.27;;;;;;;17.63;100.00;100809.56;5025774;28;20554;-36
2022/06/25 02:11:47;;;;;;;16.60;14.93;;;;;;;17.60;100.00;100809.41;5022922;28;20410;-36
2022/06/25 02:14:17;;;;;;;16.35;14.55;;;;;;;17.59;100.00;100814.25;5014444;28;20045;-30
2022/06/25 02:16:45;;;;;;;14.68;13.07;;;;;;;17.56;100.00;100817.78;5021627;28;20537;-29
2022/06/25 02:19:13;;;;;;;15.65;14.05;;;;;;;17.53;100.00;100821.28;5015559;28;20595;-31
2022/06/25 02:21:40;;;;;;;14.80;13.00;;;;;;;17.50;100.00;100825.63;5027069;28;20052;-33
2022/06/25 02:24:09;;;;;;;16.95;14.70;;;;;;;17.47;100.00;100825.50;5015699;28;20124;-29
2022/06/25 02:26:36;;;;;;;19.15;16.50;;;;;;;17.44;100.00;100829.00;5021522;28;20045;-29
2022/06/25 02:29:04;;;;;;;16.60;14.27;;;;;;;17.42;100.00;100829.34;5032775;28;20041;-34
2022/06/25 02:31:33;;;;;;;16.25;13.73;;;;;;;17.38;100.00;100830.41;5022331;28;20054;-30
2022/06/25 02:34:01;;;;;;;17.10;15.15;;;;;;;17.34;100.00;100840.72;5032457;28;20053;-31
2022/06/25 02:36:31;;;;;;;16.88;15.10;;;;;;;17.32;100.00;100843.06;5025035;28;20049;-33
2022/06/25 02:38:59;;;;;;;16.23;14.52;;;;;;;17.30;100.00;100839.75;5016681;28;20487;-31
2022/06/25 02:41:29;;;;;;;17.83;15.93;;;;;;;17.27;100.00;100840.44;5021177;28;20145;-31
2022/06/25 02:43:57;;;;;;;16.25;14.52;;;;;;;17.24;100.00;100839.13;5027291;28;20056;-31
2022/06/25 02:46:35;;;;;;;17.60;15.02;;;;;;;17.23;100.00;100840.31;5023594;28;20049;-35
2022/06/25 02:49:03;;;;;;;15.68;14.00;;;;;;;17.21;100.00;100843.47;5019291;28;20088;-28
2022/06/25 02:51:31;;;;;;;17.75;15.90;;;;;;;17.19;100.00;100842.97;5020233;28;20065;-30
2022/06/25 02:54:00;;;;;;;16.92;15.13;;;;;;;17.17;100.00;100851.00;5026155;28;20553;-32
2022/06/25 02:59:15;;;;;;;15.93;14.32;;;;;;;17.11;100.00;100863.63;4976007;28;20120;-33
2022/06/25 03:01:47;;;;;;;18.17;16.27;;;;;;;17.10;100.00;100864.81;5019937;28;20053;-29
2022/06/25 03:04:17;;;;;;;14.98;13.20;;;;;;;17.07;100.00;100868.31;5024287;28;20045;-29
2022/06/25 03:06:48;;;;;;;12.50;11.20;;;;;;;17.03;100.00;100870.16;5023312;28;20053;-29
2022/06/25 03:09:16;;;;;;;14.18;12.68;;;;;;;17.02;100.00;100874.13;5024363;28;20078;-30
2022/06/25 03:11:45;;;;;;;15.10;13.60;;;;;;;16.99;100.00;100874.81;5024041;28;20042;-28
2022/06/25 03:14:14;;;;;;;14.07;12.50;;;;;;;16.97;100.00;100876.34;5013518;28;20499;-29
2022/06/25 03:16:42;;;;;;;15.95;13.10;;;;;;;16.96;100.00;100877.50;5017342;28;20053;-30
2022/06/25 03:19:14;;;;;;;12.30;10.98;;;;;;;16.94;100.00;100874.22;5016080;28;20042;-31
2022/06/25 03:21:53;;;;;;;13.05;11.65;;;;;;;16.90;100.00;100876.88;5016180;28;20553;-29
2022/06/25 03:24:23;;;;;;;12.75;11.15;;;;;;;16.88;100.00;100874.41;5019246;28;20406;-35
2022/06/25 03:26:51;;;;;;;13.43;12.00;;;;;;;16.87;100.00;100877.56;5024764;28;20084;-31
2022/06/25 03:29:19;;;;;;;13.07;10.73;;;;;;;16.86;100.00;100885.19;5021831;28;20042;-31
2022/06/25 03:31:48;;;;;;;11.27;10.07;;;;;;;16.85;100.00;100883.53;5012255;28;20073;-32
2022/06/25 03:34:36;;;;;;;10.90;9.75;;;;;;;16.83;100.00;100885.88;5020808;28;20603;-34
2022/06/25 03:37:04;;;;;;;12.65;10.68;;;;;;;16.82;100.00;100892.66;5028720;28;20049;-35
2022/06/25 03:39:32;;;;;;;15.45;13.55;;;;;;;16.82;100.00;100887.03;5025421;28;20085;-29
2022/06/25 03:42:01;;;;;;;13.35;10.70;;;;;;;16.81;100.00;100902.28;5013159;28;20045;-29
2022/06/25 03:44:52;;;;;;;12.52;11.20;;;;;;;16.83;100.00;100891.50;5013703;28;20080;-37
2022/06/25 03:47:28;;;;;;;9.10;8.20;;;;;;;16.83;100.00;100887.84;5026588;28;20050;-36
2022/06/25 03:49:58;;;;;;;12.02;10.73;;;;;;;16.83;100.00;100896.31;5018282;28;20049;-35
2022/06/25 03:52:26;;;;;;;11.30;9.38;;;;;;;16.84;100.00;100884.69;5028930;28;20495;-32
2022/06/25 03:54:54;;;;;;;12.05;10.80;;;;;;;16.85;100.00;100894.81;5023743;28;20865;-29
2022/06/25 03:57:22;;;;;;;12.98;9.85;;;;;;;16.89;100.00;100897.78;5014016;28;20049;-30
2022/06/25 04:00:00;;;;;;;11.15;9.27;;;;;;;16.90;100.00;100896.63;5019012;28;20073;-31
2022/06/25 04:02:39;;;;;;;13.73;10.23;;;;;;;16.92;100.00;100899.09;5030527;28;20576;-35
2022/06/25 04:05:26;;;;;;;12.27;9.55;;;;;;;16.95;100.00;100898.41;5025613;28;20056;-29
2022/06/25 04:07:58;;;;;;;10.27;7.90;;;;;;;16.98;100.00;100898.56;5014530;28;20116;-27
2022/06/25 04:10:27;;;;;;;12.13;9.95;;;;;;;17.01;100.00;100897.84;5018238;28;20136;-32
2022/06/25 04:13:04;;;;;;;12.10;10.23;;;;;;;17.06;100.00;100896.84;5029051;28;20041;-28
2022/06/25 04:15:34;;;;;;;12.70;9.38;;;;;;;17.12;100.00;100906.75;5028275;28;20050;-32
2022/06/25 04:18:02;;;;;;;14.00;10.90;;;;;;;17.16;100.00;100896.44;5029332;28;20411;-32
2022/06/25 04:20:33;;;;;;;12.07;9.05;;;;;;;17.22;100.00;100897.88;5023817;28;20517;-32
2022/06/25 04:23:01;;;;;;;8.82;7.15;;;;;;;17.28;100.00;100896.50;5012003;28;20061;-28
2022/06/25 04:25:30;;;;;;;11.18;8.70;;;;;;;17.35;100.00;100905.25;5018014;28;20052;-31
2022/06/25 04:30:44;;;;;;;11.68;9.10;;;;;;;17.48;100.00;100901.31;5017355;28;20400;-28
2022/06/25 04:33:12;;;;;;;10.75;9.00;;;;;;;17.56;100.00;100911.72;5028722;28;20045;-34
2022/06/25 04:35:53;;;;;;;11.20;8.98;;;;;;;17.63;100.00;100907.50;5021991;28;20056;-28
2022/06/25 04:38:51;;;;;;;12.13;8.80;;;;;;;17.68;100.00;100912.97;4998398;28;20045;-31
2022/06/25 04:41:19;;;;;;;10.52;8.32;;;;;;;17.75;100.00;100919.72;5021442;28;20045;-31
2022/06/25 04:43:50;;;;;;;12.40;9.75;;;;;;;17.83;100.00;100917.97;5011309;28;20107;-31
2022/06/25 04:46:23;;;;;;;10.32;8.05;;;;;;;17.90;100.00;100921.06;5018019;28;20038;-28
2022/06/25 04:48:52;;;;;;;9.65;8.25;;;;;;;17.99;100.00;100927.44;5029218;28;20057;-31
2022/06/25 04:51:38;;;;;;;11.25;8.38;;;;;;;18.06;100.00;100926.88;5020189;28;20111;-35
2022/06/25 04:54:05;;;;;;;9.98;6.82;;;;;;;18.15;100.00;100928.44;5012286;28;20061;-30
2022/06/25 04:56:40;;;;;;;13.77;9.73;;;;;;;18.26;100.00;100926.00;5017493;28;20050;-28
2022/06/25 04:59:07;;;;;;;10.65;7.50;;;;;;;18.33;100.00;100934.72;4993485;28;20057;-31
2022/06/25 05:01:51;;;;;;;9.70;6.90;;;;;;;18.37;100.00;100930.03;5018962;28;20045;-28
2022/06/25 05:04:41;;;;;;;11.35;7.13;;;;;;;18.44;100.00;100943.56;4998926;28;20108;-28
2022/06/25 05:07:11;;;;;;;9.63;6.05;;;;;;;18.52;100.00;100948.31;5020267;28;20045;-28
2022/06/25 05:09:39;;;;;;;9.70;6.63;;;;;;;18.56;100.00;100944.44;5012104;28;20133;-30
2022/06/25 05:12:09;;;;;;;10.45;6.68;;;;;;;18.60;100.00;100941.75;5016812;28;20104;-33
2022/06/25 05:14:39;;;;;;;10.80;5.70;;;;;;;18.63;100.00;100946.69;5021125;28;20050;-28
2022/06/25 05:17:15;;;;;;;11.32;5.97;;;;;;;18.69;100.00;100950.94;4859043;28;10000820;-30
2022/06/25 05:19:43;;;;;;;8.32;4.72;;;;;;;18.69;100.00;100953.78;4496667;28;10000751;-31
2022/06/25 05:22:12;;;;;;;10.43;5.13;;;;;;;18.72;100.00;100953.06;5030499;28;20059;-38
2022/06/25 05:24:53;;;;;;;8.90;4.32;;;;;;;18.79;100.00;100952.47;4600143;28;10001686;-38
2022/06/25 05:27:23;;;;;;;8.27;4.45;;;;;;;18.83;100.00;100967.56;5031879;28;20666;-31
2022/06/25 05:29:50;;;;;;;7.57;3.83;;;;;;;18.88;100.00;100967.34;5024877;28;20462;-34
2022/06/25 05:32:20;;;;;;;9.38;4.32;;;;;;;18.98;100.00;100974.53;4108491;28;10000735;-29
2022/06/25 05:34:48;;;;;;;7.88;3.72;;;;;;;19.02;100.00;100972.63;5009799;28;20141;-32
2022/06/25 05:37:19;;;;;;;10.82;4.50;;;;;;;19.11;100.00;100979.00;4999527;28;20050;-36
2022/06/25 05:39:47;;;;;;;7.88;3.90;;;;;;;19.15;100.00;100977.13;5005787;28;20069;-33
2022/06/25 05:42:16;;;;;;;8.65;3.80;;;;;;;19.24;100.00;100977.81;5000603;28;20137;-33
2022/06/25 05:44:44;;;;;;;9.25;3.53;;;;;;;19.31;100.00;100980.06;5003930;28;20068;-28
2022/06/25 05:47:12;;;;;;;9.50;4.13;;;;;;;19.35;100.00;100990.31;5009802;28;20401;-28
2022/06/25 05:49:39;;;;;;;7.13;3.42;;;;;;;19.40;100.00;100995.72;5012103;28;20133;-31
2022/06/25 05:52:08;;;;;;;7.25;3.40;;;;;;;19.48;100.00;100994.78;5011385;28;20050;-35
2022/06/25 05:54:38;;;;;;;5.45;3.03;;;;;;;19.54;100.00;100990.56;5012474;28;20064;-29
2022/06/25 05:57:07;;;;;;;5.32;2.95;;;;;;;19.58;100.00;101010.50;5015024;28;20473;-33
2022/06/25 05:59:35;;;;;;;6.30;2.90;;;;;;;19.56;100.00;100993.84;5015168;28;20133;-30
2022/06/25 06:02:03;;;;;;;4.30;2.05;;;;;;;19.59;100.00;100995.94;5027530;28;20128;-28
2022/06/25 06:04:31;;;;;;;5.85;2.60;;;;;;;19.67;100.00;101001.84;5015159;28;20045;-31
2022/06/25 06:07:00;;;;;;;6.55;2.97;;;;;;;19.67;100.00;101014.00;5015214;28;20042;-31
2022/06/25 06:09:28;;;;;;;5.72;2.58;;;;;;;19.67;100.00;101018.81;5013464;28;20084;-30
2022/06/25 06:11:57;;;;;;;5.80;2.38;;;;;;;19.70;100.00;101020.94;5015190;28;20064;-33
2022/06/25 06:14:28;;;;;;;4.40;1.90;;;;;;;19.75;100.00;101023.53;5011798;28;20058;-34
2022/06/25 06:16:56;;;;;;;7.57;2.20;;;;;;;19.79;100.00;101016.78;5014123;28;20077;-35
2022/06/25 06:19:24;;;;;;;5.65;2.10;;;;;;;19.85;100.00;101025.88;5014703;28;20042;-31
2022/06/25 06:21:53;;;;;;;5.57;2.10;;;;;;;19.88;100.00;101022.31;5014444;28;20053;-33
2022/06/25 06:24:21;;;;;;;6.53;1.80;;;;;;;19.94;100.00;101030.22;5013918;28;20038;-32
2022/06/25 06:26:49;;;;;;;5.07;1.70;;;;;;;19.97;100.00;101034.34;5014530;28;20046;-28
2022/06/25 06:29:19;;;;;;;6.53;1.80;;;;;;;20.03;100.00;101037.72;5013514;28;20068;-30
2022/06/25 06:31:47;;;;;;;4.28;1.48;;;;;;;20.08;100.00;101032.66;5014394;28;20119;-29
2022/06/25 06:34:14;;;;;;;6.35;2.25;;;;;;;20.21;100.00;101034.25;5014345;28;20056;-35
2022/06/25 06:36:42;;;;;;;5.20;1.73;;;;;;;20.38;100.00;101027.50;5013783;28;20065;-29
2022/06/25 06:39:10;;;;;;;6.28;2.10;;;;;;;20.60;100.00;101028.88;5013966;28;20086;-30
2022/06/25 06:41:38;;;;;;;6.13;1.70;;;;;;;20.81;100.00;101032.31;5014192;28;20571;-28
2022/06/25 06:44:06;;;;;;;5.00;1.70;;;;;;;21.01;100.00;101035.25;5013137;28;20075;-34
2022/06/25 06:46:41;;;;;;;6.03;1.90;;;;;;;21.19;100.00;101045.03;5014198;28;20128;-30
2022/06/25 06:49:10;;;;;;;5.78;1.60;;;;;;;21.37;100.00;101032.16;5013844;28;20053;-29
2022/06/25 06:51:37;;;;;;;3.67;1.70;;;;;;;21.69;100.00;101041.44;5013534;28;20049;-29
2022/06/25 06:54:05;;;;;;;3.42;1.50;;;;;;;21.89;100.00;101036.63;5013914;28;20041;-38
2022/06/25 06:56:33;;;;;;;8.63;2.08;;;;;;;22.06;100.00;101039.06;5005650;28;20411;-30
2022/06/25 06:59:01;;;;;;;5.25;1.58;;;;;;;22.31;100.00;101046.09;5003286;28;20042;-33
2022/06/25 07:01:29;;;;;;;4.30;1.48;;;;;;;22.59;100.00;101050.69;5010541;28;20046;-36
2022/06/25 07:03:59;;;;;;;4.55;1.60;;;;;;;22.76;100.00;101053.09;5013360;28;20057;-30
2022/06/25 07:06:27;;;;;;;4.07;1.58;;;;;;;23.03;100.00;101057.69;5011868;28;20148;-32
2022/06/25 07:08:54;;;;;;;4.88;1.60;;;;;;;23.16;100.00;101055.47;5013517;28;20052;-30
2022/06/25 07:11:30;;;;;;;5.07;1.48;;;;;;;23.11;100.00;101054.97;5013918;28;20081;-33
2022/06/25 07:14:00;;;;;;;4.95;1.52;;;;;;;22.92;100.00;101058.69;5013827;28;20044;-30
2022/06/25 07:16:28;;;;;;;3.67;1.27;;;;;;;22.73;100.00;101058.72;5011078;28;20053;-32
2022/06/25 07:18:59;;;;;;;5.13;1.35;;;;;;;22.86;100.00;101068.75;5012753;28;20045;-31
2022/06/25 07:21:28;;;;;;;5.65;1.38;;;;;;;23.20;100.00;101058.38;5013786;28;20078;-29
2022/06/25 07:23:57;;;;;;;3.83;1.30;;;;;;;23.43;100.00;101075.44;4995873;28;20138;-31
2022/06/25 07:26:26;;;;;;;4.88;1.30;;;;;;;23.74;99.96;101075.19;5012874;28;20046;-38
2022/06/25 07:28:55;;;;;;;6.65;1.45;;;;;;;23.76;97.04;101084.19;5013203;28;20038;-30
2022/06/25 07:31:23;;;;;;;4.43;1.20;;;;;;;23.56;96.20;101085.47;5011983;28;20419;-32
2022/06/25 07:33:51;;;;;;;4.68;1.20;;;;;;;23.40;96.61;101090.44;5012978;28;20061;-29
2022/06/25 07:36:20;;;;;;;3.40;1.02;;;;;;;23.31;95.25;101091.53;5013255;28;20068;-30
2022/06/25 07:38:48;;;;;;;3.63;0.80;;;;;;;23.04;91.35;101092.66;5012982;28;20042;-37
2022/06/25 07:41:16;;;;;;;2.35;0.75;;;;;;;22.63;88.33;101100.78;5012112;28;20406;-38
2022/06/25 07:43:44;;;;;;;2.88;0.75;;;;;;;22.16;88.65;101101.00;5012899;28;20498;-34
2022/06/25 07:46:12;;;;;;;3.63;1.00;;;;;;;21.95;91.04;101107.00;5013301;28;20129;-29
2022/06/25 07:48:40;;;;;;;3.53;1.02;;;;;;;21.76;92.22;101106.94;5012483;28;20065;-35
2022/06/25 07:53:54;;;;;;;4.30;1.00;;;;;;;21.51;94.05;101117.69;5004180;28;20552;-29
2022/06/25 07:56:23;;;;;;;5.00;1.23;;;;;;;21.41;95.06;101121.06;5012645;28;20491;-35
2022/06/25 07:58:51;;;;;;;5.00;1.23;;;;;;;21.28;96.38;101119.53;5013251;28;20603;-30
2022/06/25 08:01:18;;;;;;;3.92;1.13;;;;;;;21.06;96.67;101125.78;5012330;28;20120;-34
2022/06/25 08:03:46;;;;;;;4.65;1.38;;;;;;;20.87;97.88;101127.31;5012988;28;20037;-32
2022/06/25 08:06:15;;;;;;;7.65;1.65;;;;;;;20.71;99.32;101134.13;5011444;28;20064;-29
2022/06/25 08:08:43;;;;;;;6.82;1.40;;;;;;;20.62;99.51;101126.59;5012162;28;20046;-30
2022/06/25 08:11:12;;;;;;;6.85;1.48;;;;;;;20.69;99.73;101125.16;5012970;28;20042;-31
2022/06/25 08:13:40;;;;;;;6.45;1.40;;;;;;;20.74;99.79;101122.88;5012657;28;20046;-30
2022/06/25 08:16:09;;;;;;;4.88;1.23;;;;;;;20.90;99.98;101132.25;5011753;28;20050;-38
2022/06/25 08:18:38;;;;;;;6.22;1.52;;;;;;;21.06;99.37;101131.47;5011750;28;20050;-33
2022/06/25 08:21:07;;;;;;;5.78;1.35;;;;;;;21.14;99.34;101131.28;5012781;28;20050;-36
2022/06/25 08:23:35;;;;;;;6.32;1.30;;;;;;;21.33;99.47;101133.44;5012048;28;20164;-31
2022/06/25 08:26:03;;;;;;;6.28;1.52;;;;;;;21.49;99.19;101137.09;4994735;28;20057;-35
2022/06/25 08:28:32;;;;;;;4.63;1.30;;;;;;;21.59;98.60;101139.38;5012101;28;20046;-31
2022/06/25 08:31:00;;;;;;;6.53;1.45;;;;;;;21.44;97.47;101140.22;5010533;28;20058;-29
2022/06/25 08:33:28;;;;;;;5.63;1.63;;;;;;;21.20;97.90;101140.38;5010541;28;20049;-35
2022/06/25 08:35:56;;;;;;;5.25;1.20;;;;;;;21.06;98.61;101154.16;5010864;28;20050;-31
2022/06/25 08:38:24;;;;;;;7.65;1.85;;;;;;;20.88;99.13;101150.81;5011485;28;20080;-29
2022/06/25 08:40:57;;;;;;;9.20;1.85;;;;;;;20.78;99.60;101140.00;5011781;28;20527;-34
2022/06/25 08:43:25;;;;;;;6.00;1.50;;;;;;;20.71;99.42;101149.13;5011564;28;20069;-30
2022/06/25 08:45:55;;;;;;;10.45;1.80;;;;;;;20.51;99.14;101153.00;5012372;28;20461;-28
2022/06/25 08:48:24;;;;;;;7.28;1.50;;;;;;;20.32;99.82;101161.28;5011770;28;20070;-33
2022/06/25 08:50:52;;;;;;;5.57;1.23;;;;;;;20.17;100.00;101166.50;5011626;28;20535;-34
2022/06/25 08:53:20;;;;;;;7.82;1.50;;;;;;;19.95;100.00;101159.34;5011964;28;20567;-35
2022/06/25 08:55:48;;;;;;;9.10;1.92;;;;;;;19.84;100.00;101155.31;5012980;28;20045;-28
2022/06/25 08:58:16;;;;;;;6.00;1.52;;;;;;;19.87;100.00;101167.94;5022072;28;20394;-32
2022/06/25 09:00:46;;;;;;;7.03;1.50;;;;;;;19.93;100.00;101166.53;5012267;28;20096;-30
2022/06/25 09:03:15;;;;;;;7.50;1.67;;;;;;;20.02;100.00;101169.22;5012003;28;20049;-30
2022/06/25 09:05:46;;;;;;;13.32;2.78;;;;;;;19.91;100.00;101160.41;5011528;28;20050;-28
2022/06/25 09:08:15;;;;;;;11.27;2.00;;;;;;;19.85;100.00;101159.81;5012038;28;20132;-30
2022/06/25 09:10:45;;;;;;;10.73;2.08;;;;;;;19.82;100.00;101159.69;5012163;28;20045;-29
2022/06/25 09:13:14;;;;;;;10.98;2.15;;;;;;;19.83;100.00;101175.50;5011329;28;20068;-31
2022/06/25 09:15:45;;;;;;;11.10;2.58;;;;;;;19.80;100.00;101174.19;5011837;28;20046;-32
2022/06/25 09:18:17;;;;;;;8.98;2.05;;;;;;;19.89;100.00;101171.25;5011426;28;20069;-29
2022/06/25 09:21:05;;;;;;;;;;;;;;;20.07;100.00;101171.81;5012738;28;20045;-28
2022/06/25 09:23:35;;;;;;;11.60;2.15;;;;;;;20.31;100.00;101168.97;5008750;28;20279;-33
2022/06/25 09:26:06;;;;;;;9.05;2.33;;;;;;;20.61;100.00;101178.81;5010525;28;20090;-33
2022/06/25 09:28:36;;;;;;;8.82;1.90;;;;;;;20.77;100.00;101178.06;5012128;28;20050;-38
2022/06/25 09:31:04;;;;;;;11.48;2.20;;;;;;;20.87;100.00;101174.69;5015866;28;20053;-34
2022/06/25 09:33:37;;;;;;;9.65;2.28;;;;;;;20.98;100.00;101168.13;5015248;28;20050;-34
2022/06/25 09:36:07;;;;;;;11.13;2.00;;;;;;;21.14;100.00;101171.03;5015532;28;20064;-30
2022/06/25 09:38:35;;;;;;;11.00;2.33;;;;;;;21.13;98.73;101172.22;5015550;28;20506;-29
2022/06/25 09:41:03;;;;;;;10.85;2.17;;;;;;;21.19;98.94;101184.94;5015088;28;20058;-33
2022/06/25 09:43:37;;;;;;;11.85;2.00;;;;;;;21.35;97.17;101187.84;5015759;28;20056;-28
2022/06/25 09:46:06;;;;;;;9.82;2.13;;;;;;;21.40;96.82;101178.22;5012642;28;20052;-29
2022/06/25 09:48:38;;;;;;;8.75;1.98;;;;;;;21.58;96.99;101188.06;5015140;28;20092;-29
2022/06/25 09:51:08;;;;;;;14.07;2.80;;;;;;;21.84;95.62;101187.47;5015283;28;20141;-28
2022/06/25 09:53:46;;;;;;;13.10;2.35;;;;;;;22.22;94.23;101189.66;5014972;28;20048;-29
2022/06/25 09:56:15;;;;;;;9.45;2.08;;;;;;;22.37;93.06;101177.44;5014722;28;20137;-32
2022/06/25 09:58:44;;;;;;;11.27;2.60;;;;;;;22.55;92.41;101177.81;5014878;28;20052;-37
2022/06/25 10:01:16;;;;;;;8.75;1.70;;;;;;;22.51;91.29;101172.06;5013647;28;20490;-29
2022/06/25 10:03:47;;;;;;;7.07;1.88;;;;;;;22.54;91.33;101176.19;5015232;28;20565;-38
2022/06/25 10:06:16;;;;;;;8.85;2.33;;;;;;;22.69;90.89;101180.97;5014988;28;20423;-30
2022/06/25 10:08:47;;;;;;;10.98;2.17;;;;;;;23.15;91.41;101162.03;5014366;28;20054;-29
2022/06/25 10:11:17;;;;;;;11.25;2.30;;;;;;;23.77;89.60;101176.19;5014363;28;20056;-33
2022/06/25 10:13:48;;;;;;;11.63;2.30;;;;;;;24.13;85.99;101178.41;5013840;28;20410;-37
2022/06/25 10:16:16;;;;;;;9.73;2.05;;;;;;;24.36;84.68;101176.34;5014153;28;20526;-34
2022/06/25 10:18:47;;;;;;;10.15;2.20;;;;;;;24.47;83.07;101182.19;5015022;28;20049;-39
2022/06/25 10:21:15;;;;;;;10.32;2.35;;;;;;;24.30;82.68;101185.63;5014677;28;20618;-30
2022/06/25 10:23:44;;;;;;;9.20;2.15;;;;;;;24.23;82.43;101191.16;5014514;28;20061;-31
2022/06/25 10:26:13;;;;;;;8.18;1.67;;;;;;;24.07;82.47;101196.22;5014371;28;20046;-29
2022/06/25 10:28:41;;;;;;;7.95;1.77;;;;;;;23.87;79.28;101195.50;5013697;28;20112;-30
2022/06/25 10:31:13;;;;;;;6.68;1.70;;;;;;;23.79;79.86;101196.56;5014508;28;20048;-32
2022/06/25 10:33:55;;;;;;;10.80;1.90;;;;;;;23.85;79.56;101201.56;5014503;28;20129;-34
2022/06/25 10:36:41;;;;;;;10.52;1.88;;;;;;;24.09;78.62;101208.06;5013786;28;20081;-29
2022/06/25 10:39:36;;;;;;;7.05;2.00;;;;;;;24.12;78.52;101204.44;5004069;28;20046;-29
2022/06/25 10:45:55;;;;;;;7.82;1.60;;;;;;;24.09;80.39;101216.63;5010637;28;20137;-35
2022/06/25 10:48:23;;;;;;;12.02;2.17;;;;;;;24.11;79.57;101211.38;5013570;28;20061;-29
2022/06/25 10:50:54;;;;;;;11.27;2.40;;;;;;;24.07;78.98;101208.44;5013651;28;20502;-31
2022/06/25 10:53:26;;;;;;;11.02;2.33;;;;;;;24.05;77.85;101214.53;5014213;28;20038;-31
2022/06/25 10:56:17;;;;;;;8.07;2.10;;;;;;;24.06;76.52;101203.94;5014514;28;20128;-28
2022/06/25 10:58:49;;;;;;;7.13;1.58;;;;;;;23.88;77.28;101205.69;5011793;28;20426;-31
2022/06/25 11:01:35;;;;;;;7.80;1.75;;;;;;;23.98;76.08;101211.56;4997688;28;20429;-30
2022/06/25 11:04:08;;;;;;;6.30;1.60;;;;;;;23.91;75.77;101228.56;5013508;28;20060;-28
2022/06/25 11:06:39;;;;;;;10.13;2.30;;;;;;;23.73;76.85;101227.44;5014371;28;20038;-33
2022/06/25 11:09:13;;;;;;;7.50;1.60;;;;;;;23.75;76.75;101225.03;5014235;28;20046;-30
2022/06/25 11:11:42;;;;;;;7.43;1.85;;;;;;;23.73;77.30;101226.59;5013375;28;20144;-29
2022/06/25 11:14:16;;;;;;;10.90;1.92;;;;;;;23.70;75.65;101229.00;5012992;28;20040;-33
2022/06/25 11:16:44;;;;;;;9.30;1.80;;;;;;;23.34;75.22;101243.75;4996515;28;20050;-29
2022/06/25 11:19:12;;;;;;;9.32;1.95;;;;;;;22.95;75.93;101238.09;5012795;28;20505;-30
2022/06/25 11:21:43;;;;;;;11.98;1.90;;;;;;;22.62;76.30;101232.00;4994565;28;20065;-29
2022/06/25 11:24:21;;;;;;;7.35;1.63;;;;;;;22.36;77.23;101237.53;5013164;28;20042;-34
2022/06/25 11:29:38;;;;;;;6.82;1.55;;;;;;;22.21;78.33;101245.69;5011569;28;20049;-32
2022/06/25 11:32:08;;;;;;;7.60;2.25;;;;;;;22.06;78.83;101254.25;5010114;28;20056;-29
2022/06/25 11:34:36;;;;;;;9.30;1.80;;;;;;;21.90;79.96;101251.38;5004898;28;20414;-36
2022/06/25 11:37:10;;;;;;;7.50;1.80;;;;;;;21.74;81.10;101256.22;5013338;28;20077;-29
2022/06/25 11:39:41;;;;;;;5.35;1.25;;;;;;;21.65;81.98;101262.91;5011816;28;20054;-35
2022/06/25 11:42:11;;;;;;;7.60;1.63;;;;;;;21.62;82.39;101263.63;5013897;28;20400;-29
2022/06/25 11:44:41;;;;;;;7.50;2.00;;;;;;;21.49;83.47;101259.22;5013262;28;20049;-34